sensor_id;sensor_type;location;lat;lon;timestamp;temperature;humidity
35111;DHT22;21290;50.158;8.658;2022-11-09T00:01:33;10.80;99.90
35111;DHT22;21290;50.158;8.658;2022-11-09T00:04:01;10.80;99.90
35111;DHT22;21290;50.158;8.658;2022-11-09T00:06:28;10.80;99.90
35111;DHT22;21290;50.158;8.658;2022-11-09T00:08:54;10.80;99.90
35111;DHT22;21290;50.158;8.658;2022-11-09T00:11:21;10.80;99.90
35111;DHT22;21290;50.158;8.658;2022-11-09T00:13:47;10.80;99.90
35111;DHT22;21290;50.158;8.658;2022-11-09T00:16:16;10.70;99.90
35111;DHT22;21290;50.158;8.658;2022-11-09T00:18:42;10.70;99.90
35111;DHT22;21290;50.158;8.658;2022-11-09T00:21:19;10.80;99.90
35111;DHT22;21290;50.158;8.658;2022-11-09T00:23:46;10.70;99.90
35111;DHT22;21290;50.158;8.658;2022-11-09T00:26:13;10.70;99.90
35111;DHT22;21290;50.158;8.658;2022-11-09T00:28:40;10.80;99.90
35111;DHT22;21290;50.158;8.658;2022-11-09T00:31:09;10.80;99.90
35111;DHT22;21290;50.158;8.658;2022-11-09T00:33:36;10.70;99.90
35111;DHT22;21290;50.158;8.658;2022-11-09T00:36:03;10.60;99.90
35111;DHT22;21290;50.158;8.658;2022-11-09T00:38:33;10.60;99.90
35111;DHT22;21290;50.158;8.658;2022-11-09T00:41:00;10.60;99.90
35111;DHT22;21290;50.158;8.658;2022-11-09T00:43:27;10.60;99.90
35111;DHT22;21290;50.158;8.658;2022-11-09T00:45:53;10.60;99.90
35111;DHT22;21290;50.158;8.658;2022-11-09T00:48:20;10.60;99.90
35111;DHT22;21290;50.158;8.658;2022-11-09T00:50:50;10.70;99.90
35111;DHT22;21290;50.158;8.658;2022-11-09T00:53:17;10.70;99.90
35111;DHT22;21290;50.158;8.658;2022-11-09T00:55:57;10.80;99.90
35111;DHT22;21290;50.158;8.658;2022-11-09T00:58:24;10.80;99.90
35111;DHT22;21290;50.158;8.658;2022-11-09T01:00:51;10.80;99.90
35111;DHT22;21290;50.158;8.658;2022-11-09T01:03:18;10.80;99.90
35111;DHT22;21290;50.158;8.658;2022-11-09T01:05:45;10.80;99.90
35111;DHT22;21290;50.158;8.658;2022-11-09T01:08:12;10.90;99.90
35111;DHT22;21290;50.158;8.658;2022-11-09T01:10:40;10.80;99.90
35111;DHT22;21290;50.158;8.658;2022-11-09T01:13:07;10.80;99.90
35111;DHT22;21290;50.158;8.658;2022-11-09T01:15:34;10.80;99.90
35111;DHT22;21290;50.158;8.658;2022-11-09T01:18:00;10.90;99.90
35111;DHT22;21290;50.158;8.658;2022-11-09T01:20:26;10.80;99.90
35111;DHT22;21290;50.158;8.658;2022-11-09T01:22:53;10.90;99.90
35111;DHT22;21290;50.158;8.658;2022-11-09T01:25:20;10.90;99.90
35111;DHT22;21290;50.158;8.658;2022-11-09T01:27:46;10.90;99.90
35111;DHT22;21290;50.158;8.658;2022-11-09T01:30:13;10.90;99.90
35111;DHT22;21290;50.158;8.658;2022-11-09T01:32:39;11.00;99.90
35111;DHT22;21290;50.158;8.658;2022-11-09T01:35:06;11.00;99.90
35111;DHT22;21290;50.158;8.658;2022-11-09T01:37:32;11.00;99.90
35111;DHT22;21290;50.158;8.658;2022-11-09T01:39:59;11.00;99.90
35111;DHT22;21290;50.158;8.658;2022-11-09T01:42:25;11.00;99.90
35111;DHT22;21290;50.158;8.658;2022-11-09T01:47:56;11.00;99.90
35111;DHT22;21290;50.158;8.658;2022-11-09T01:50:38;11.00;99.90
35111;DHT22;21290;50.158;8.658;2022-11-09T01:53:06;11.00;99.90
35111;DHT22;21290;50.158;8.658;2022-11-09T01:55:34;11.00;99.90
35111;DHT22;21290;50.158;8.658;2022-11-09T01:58:03;11.00;99.90
35111;DHT22;21290;50.158;8.658;2022-11-09T02:00:32;11.00;99.90
35111;DHT22;21290;50.158;8.658;2022-11-09T02:03:09;11.00;99.90
35111;DHT22;21290;50.158;8.658;2022-11-09T02:05:37;11.00;99.90
35111;DHT22;21290;50.158;8.658;2022-11-09T02:08:04;11.10;99.90
35111;DHT22;21290;50.158;8.658;2022-11-09T02:10:37;11.10;99.90
35111;DHT22;21290;50.158;8.658;2022-11-09T02:13:06;11.10;99.90
35111;DHT22;21290;50.158;8.658;2022-11-09T02:15:33;11.20;99.90
35111;DHT22;21290;50.158;8.658;2022-11-09T02:18:01;11.20;99.90
35111;DHT22;21290;50.158;8.658;2022-11-09T02:20:28;11.30;99.90
35111;DHT22;21290;50.158;8.658;2022-11-09T02:22:54;11.30;99.90
35111;DHT22;21290;50.158;8.658;2022-11-09T02:25:21;11.40;99.90
35111;DHT22;21290;50.158;8.658;2022-11-09T02:27:48;11.40;99.90
35111;DHT22;21290;50.158;8.658;2022-11-09T02:30:14;11.50;99.90
35111;DHT22;21290;50.158;8.658;2022-11-09T02:32:41;11.60;99.90
35111;DHT22;21290;50.158;8.658;2022-11-09T02:35:08;11.60;99.90
35111;DHT22;21290;50.158;8.658;2022-11-09T02:37:39;11.80;99.90
35111;DHT22;21290;50.158;8.658;2022-11-09T02:40:08;11.90;99.90
35111;DHT22;21290;50.158;8.658;2022-11-09T02:42:36;12.00;99.90
35111;DHT22;21290;50.158;8.658;2022-11-09T02:45:02;12.00;99.90
35111;DHT22;21290;50.158;8.658;2022-11-09T02:47:29;12.00;99.90
35111;DHT22;21290;50.158;8.658;2022-11-09T02:49:55;12.10;99.90
35111;DHT22;21290;50.158;8.658;2022-11-09T02:52:23;12.10;99.90
35111;DHT22;21290;50.158;8.658;2022-11-09T02:54:49;12.10;99.90
35111;DHT22;21290;50.158;8.658;2022-11-09T02:57:16;12.10;99.90
35111;DHT22;21290;50.158;8.658;2022-11-09T02:59:42;12.10;99.90
35111;DHT22;21290;50.158;8.658;2022-11-09T03:02:09;12.10;99.90
35111;DHT22;21290;50.158;8.658;2022-11-09T03:04:35;12.10;99.90
35111;DHT22;21290;50.158;8.658;2022-11-09T03:07:02;12.10;99.90
35111;DHT22;21290;50.158;8.658;2022-11-09T03:09:29;12.20;99.90
35111;DHT22;21290;50.158;8.658;2022-11-09T03:11:55;12.20;99.90
35111;DHT22;21290;50.158;8.658;2022-11-09T03:14:21;12.10;99.90
35111;DHT22;21290;50.158;8.658;2022-11-09T03:16:48;12.10;99.90
35111;DHT22;21290;50.158;8.658;2022-11-09T03:19:16;12.20;99.90
35111;DHT22;21290;50.158;8.658;2022-11-09T03:21:43;12.20;99.90
35111;DHT22;21290;50.158;8.658;2022-11-09T03:24:09;12.20;99.90
35111;DHT22;21290;50.158;8.658;2022-11-09T03:26:36;12.20;99.90
35111;DHT22;21290;50.158;8.658;2022-11-09T03:29:02;12.20;99.90
35111;DHT22;21290;50.158;8.658;2022-11-09T03:31:28;12.20;99.90
35111;DHT22;21290;50.158;8.658;2022-11-09T03:33:55;12.20;99.90
35111;DHT22;21290;50.158;8.658;2022-11-09T03:36:21;12.20;99.90
35111;DHT22;21290;50.158;8.658;2022-11-09T03:38:48;12.20;99.90
35111;DHT22;21290;50.158;8.658;2022-11-09T03:41:14;12.20;99.90
35111;DHT22;21290;50.158;8.658;2022-11-09T03:43:43;12.20;99.90
35111;DHT22;21290;50.158;8.658;2022-11-09T03:46:36;12.20;99.90
35111;DHT22;21290;50.158;8.658;2022-11-09T03:49:17;12.20;99.90
35111;DHT22;21290;50.158;8.658;2022-11-09T03:51:45;12.20;99.90
35111;DHT22;21290;50.158;8.658;2022-11-09T03:54:14;12.20;99.90
35111;DHT22;21290;50.158;8.658;2022-11-09T03:56:41;12.20;99.90
35111;DHT22;21290;50.158;8.658;2022-11-09T03:59:11;12.20;99.90
35111;DHT22;21290;50.158;8.658;2022-11-09T04:01:38;12.20;99.90
35111;DHT22;21290;50.158;8.658;2022-11-09T04:04:04;12.20;99.90
35111;DHT22;21290;50.158;8.658;2022-11-09T04:06:31;12.20;99.90
35111;DHT22;21290;50.158;8.658;2022-11-09T04:08:57;12.20;99.90
35111;DHT22;21290;50.158;8.658;2022-11-09T04:11:24;12.20;99.90
35111;DHT22;21290;50.158;8.658;2022-11-09T04:13:50;12.20;99.90
35111;DHT22;21290;50.158;8.658;2022-11-09T04:16:17;12.20;99.90
35111;DHT22;21290;50.158;8.658;2022-11-09T04:18:43;12.10;99.90
35111;DHT22;21290;50.158;8.658;2022-11-09T04:21:10;12.20;99.90
35111;DHT22;21290;50.158;8.658;2022-11-09T04:23:36;12.20;99.90
35111;DHT22;21290;50.158;8.658;2022-11-09T04:26:02;12.20;99.90
35111;DHT22;21290;50.158;8.658;2022-11-09T04:28:29;12.20;99.90
35111;DHT22;21290;50.158;8.658;2022-11-09T04:30:58;12.20;99.90
35111;DHT22;21290;50.158;8.658;2022-11-09T04:33:25;12.20;99.90
35111;DHT22;21290;50.158;8.658;2022-11-09T04:35:51;12.20;99.90
35111;DHT22;21290;50.158;8.658;2022-11-09T04:38:18;12.20;99.90
35111;DHT22;21290;50.158;8.658;2022-11-09T04:40:44;12.20;99.90
35111;DHT22;21290;50.158;8.658;2022-11-09T04:43:11;12.20;99.90
35111;DHT22;21290;50.158;8.658;2022-11-09T04:45:38;12.20;99.90
35111;DHT22;21290;50.158;8.658;2022-11-09T04:48:05;12.20;99.90
35111;DHT22;21290;50.158;8.658;2022-11-09T04:50:32;12.20;99.90
35111;DHT22;21290;50.158;8.658;2022-11-09T04:55:33;12.20;99.90
35111;DHT22;21290;50.158;8.658;2022-11-09T04:57:59;12.20;99.90
35111;DHT22;21290;50.158;8.658;2022-11-09T05:00:26;12.20;99.90
35111;DHT22;21290;50.158;8.658;2022-11-09T05:02:52;12.20;99.90
35111;DHT22;21290;50.158;8.658;2022-11-09T05:05:19;12.20;99.90
35111;DHT22;21290;50.158;8.658;2022-11-09T05:07:45;12.20;99.90
35111;DHT22;21290;50.158;8.658;2022-11-09T05:10:12;12.20;99.90
35111;DHT22;21290;50.158;8.658;2022-11-09T05:12:38;12.20;99.90
35111;DHT22;21290;50.158;8.658;2022-11-09T05:15:11;12.20;99.90
35111;DHT22;21290;50.158;8.658;2022-11-09T05:17:37;12.20;99.90
35111;DHT22;21290;50.158;8.658;2022-11-09T05:20:04;12.20;99.90
35111;DHT22;21290;50.158;8.658;2022-11-09T05:22:31;12.20;99.90
35111;DHT22;21290;50.158;8.658;2022-11-09T05:25:16;12.20;99.90
35111;DHT22;21290;50.158;8.658;2022-11-09T05:27:42;12.20;99.90
35111;DHT22;21290;50.158;8.658;2022-11-09T05:30:09;12.30;99.90
35111;DHT22;21290;50.158;8.658;2022-11-09T05:32:37;12.30;99.90
35111;DHT22;21290;50.158;8.658;2022-11-09T05:35:04;12.30;99.90
35111;DHT22;21290;50.158;8.658;2022-11-09T05:37:31;12.30;99.90
35111;DHT22;21290;50.158;8.658;2022-11-09T05:39:57;12.30;99.90
35111;DHT22;21290;50.158;8.658;2022-11-09T05:42:24;12.30;99.90
35111;DHT22;21290;50.158;8.658;2022-11-09T05:44:50;12.30;99.90
35111;DHT22;21290;50.158;8.658;2022-11-09T05:47:17;12.30;99.90
35111;DHT22;21290;50.158;8.658;2022-11-09T05:49:44;12.40;99.90
35111;DHT22;21290;50.158;8.658;2022-11-09T05:52:11;12.40;99.90
35111;DHT22;21290;50.158;8.658;2022-11-09T05:54:38;12.40;99.90
35111;DHT22;21290;50.158;8.658;2022-11-09T05:57:04;12.40;99.90
35111;DHT22;21290;50.158;8.658;2022-11-09T05:59:31;12.40;99.90
35111;DHT22;21290;50.158;8.658;2022-11-09T06:01:57;12.40;99.90
35111;DHT22;21290;50.158;8.658;2022-11-09T06:04:24;12.40;99.90
35111;DHT22;21290;50.158;8.658;2022-11-09T06:06:50;12.40;99.90
35111;DHT22;21290;50.158;8.658;2022-11-09T06:09:17;12.40;99.90
35111;DHT22;21290;50.158;8.658;2022-11-09T06:11:43;12.40;99.90
35111;DHT22;21290;50.158;8.658;2022-11-09T06:14:09;12.40;99.90
35111;DHT22;21290;50.158;8.658;2022-11-09T06:16:36;12.40;99.90
35111;DHT22;21290;50.158;8.658;2022-11-09T06:19:03;12.40;99.90
35111;DHT22;21290;50.158;8.658;2022-11-09T06:21:29;12.40;99.90
35111;DHT22;21290;50.158;8.658;2022-11-09T06:23:55;12.40;99.90
35111;DHT22;21290;50.158;8.658;2022-11-09T06:26:22;12.40;99.90
35111;DHT22;21290;50.158;8.658;2022-11-09T06:28:48;12.40;99.90
35111;DHT22;21290;50.158;8.658;2022-11-09T06:31:15;12.40;99.90
35111;DHT22;21290;50.158;8.658;2022-11-09T06:33:42;12.30;99.90
35111;DHT22;21290;50.158;8.658;2022-11-09T06:36:09;12.30;99.90
35111;DHT22;21290;50.158;8.658;2022-11-09T06:38:36;12.30;99.90
35111;DHT22;21290;50.158;8.658;2022-11-09T06:41:03;12.30;99.90
35111;DHT22;21290;50.158;8.658;2022-11-09T06:43:29;12.30;99.90
35111;DHT22;21290;50.158;8.658;2022-11-09T06:45:56;12.30;99.90
35111;DHT22;21290;50.158;8.658;2022-11-09T06:48:22;12.30;99.90
35111;DHT22;21290;50.158;8.658;2022-11-09T06:50:49;12.30;99.90
35111;DHT22;21290;50.158;8.658;2022-11-09T06:53:16;12.30;99.90
35111;DHT22;21290;50.158;8.658;2022-11-09T06:55:43;12.30;99.90
35111;DHT22;21290;50.158;8.658;2022-11-09T06:58:16;12.30;99.90
35111;DHT22;21290;50.158;8.658;2022-11-09T07:00:43;12.30;99.90
35111;DHT22;21290;50.158;8.658;2022-11-09T07:03:16;12.30;99.90
35111;DHT22;21290;50.158;8.658;2022-11-09T07:05:43;12.20;99.90
35111;DHT22;21290;50.158;8.658;2022-11-09T07:08:10;12.30;99.90
35111;DHT22;21290;50.158;8.658;2022-11-09T07:10:37;12.30;99.90
35111;DHT22;21290;50.158;8.658;2022-11-09T07:13:04;12.30;99.90
35111;DHT22;21290;50.158;8.658;2022-11-09T07:15:31;12.30;99.90
35111;DHT22;21290;50.158;8.658;2022-11-09T07:18:05;12.30;99.90
35111;DHT22;21290;50.158;8.658;2022-11-09T07:20:31;12.30;99.90
35111;DHT22;21290;50.158;8.658;2022-11-09T07:23:01;12.30;99.90
35111;DHT22;21290;50.158;8.658;2022-11-09T07:25:28;12.30;99.90
35111;DHT22;21290;50.158;8.658;2022-11-09T07:27:54;12.30;99.90
35111;DHT22;21290;50.158;8.658;2022-11-09T07:30:27;12.40;99.90
35111;DHT22;21290;50.158;8.658;2022-11-09T07:32:53;12.40;99.90
35111;DHT22;21290;50.158;8.658;2022-11-09T07:35:34;12.40;99.90
35111;DHT22;21290;50.158;8.658;2022-11-09T07:38:01;12.40;99.90
35111;DHT22;21290;50.158;8.658;2022-11-09T07:40:28;12.40;99.90
35111;DHT22;21290;50.158;8.658;2022-11-09T07:43:01;12.40;99.90
35111;DHT22;21290;50.158;8.658;2022-11-09T07:45:33;12.50;99.90
35111;DHT22;21290;50.158;8.658;2022-11-09T07:48:03;12.50;99.90
35111;DHT22;21290;50.158;8.658;2022-11-09T07:50:43;12.50;99.90
35111;DHT22;21290;50.158;8.658;2022-11-09T07:53:12;12.50;99.90
35111;DHT22;21290;50.158;8.658;2022-11-09T07:55:41;12.50;99.90
35111;DHT22;21290;50.158;8.658;2022-11-09T07:58:11;12.40;99.90
35111;DHT22;21290;50.158;8.658;2022-11-09T08:00:38;12.50;99.90
35111;DHT22;21290;50.158;8.658;2022-11-09T08:03:06;12.50;99.90
35111;DHT22;21290;50.158;8.658;2022-11-09T08:05:33;12.50;99.90
35111;DHT22;21290;50.158;8.658;2022-11-09T08:08:01;12.50;99.90
35111;DHT22;21290;50.158;8.658;2022-11-09T08:10:28;12.50;99.90
35111;DHT22;21290;50.158;8.658;2022-11-09T08:12:57;12.60;99.90
35111;DHT22;21290;50.158;8.658;2022-11-09T08:15:26;12.50;99.90
35111;DHT22;21290;50.158;8.658;2022-11-09T08:17:53;12.60;99.90
35111;DHT22;21290;50.158;8.658;2022-11-09T08:20:23;12.60;99.90
35111;DHT22;21290;50.158;8.658;2022-11-09T08:22:49;12.60;99.90
35111;DHT22;21290;50.158;8.658;2022-11-09T08:25:16;12.50;99.90
35111;DHT22;21290;50.158;8.658;2022-11-09T08:27:43;12.60;99.90
35111;DHT22;21290;50.158;8.658;2022-11-09T08:30:10;12.60;99.90
35111;DHT22;21290;50.158;8.658;2022-11-09T08:32:37;12.60;99.90
35111;DHT22;21290;50.158;8.658;2022-11-09T08:35:04;12.60;99.90
35111;DHT22;21290;50.158;8.658;2022-11-09T08:37:32;12.60;99.90
35111;DHT22;21290;50.158;8.658;2022-11-09T08:39:58;12.60;99.90
35111;DHT22;21290;50.158;8.658;2022-11-09T08:42:25;12.60;99.90
35111;DHT22;21290;50.158;8.658;2022-11-09T08:44:51;12.70;99.90
35111;DHT22;21290;50.158;8.658;2022-11-09T08:47:18;12.70;99.90
35111;DHT22;21290;50.158;8.658;2022-11-09T08:49:44;12.80;99.90
35111;DHT22;21290;50.158;8.658;2022-11-09T08:52:12;12.90;99.90
35111;DHT22;21290;50.158;8.658;2022-11-09T08:54:39;13.00;99.90
35111;DHT22;21290;50.158;8.658;2022-11-09T08:57:05;13.40;99.90
35111;DHT22;21290;50.158;8.658;2022-11-09T08:59:32;13.70;99.90
35111;DHT22;21290;50.158;8.658;2022-11-09T09:01:58;13.80;99.90
35111;DHT22;21290;50.158;8.658;2022-11-09T09:04:26;13.80;99.90
35111;DHT22;21290;50.158;8.658;2022-11-09T09:06:53;13.80;99.90
35111;DHT22;21290;50.158;8.658;2022-11-09T09:09:19;14.00;99.90
35111;DHT22;21290;50.158;8.658;2022-11-09T09:11:46;13.90;99.90
35111;DHT22;21290;50.158;8.658;2022-11-09T09:14:13;13.90;99.90
35111;DHT22;21290;50.158;8.658;2022-11-09T09:16:40;13.80;99.90
35111;DHT22;21290;50.158;8.658;2022-11-09T09:19:07;13.80;99.90
35111;DHT22;21290;50.158;8.658;2022-11-09T09:21:33;13.80;99.90
35111;DHT22;21290;50.158;8.658;2022-11-09T09:24:00;13.90;99.90
35111;DHT22;21290;50.158;8.658;2022-11-09T09:26:26;13.90;99.90
35111;DHT22;21290;50.158;8.658;2022-11-09T09:28:53;13.90;99.90
35111;DHT22;21290;50.158;8.658;2022-11-09T09:31:19;14.00;99.90
35111;DHT22;21290;50.158;8.658;2022-11-09T09:33:46;14.00;99.90
35111;DHT22;21290;50.158;8.658;2022-11-09T09:36:16;14.00;99.90
35111;DHT22;21290;50.158;8.658;2022-11-09T09:38:43;14.10;99.90
35111;DHT22;21290;50.158;8.658;2022-11-09T09:41:15;14.20;99.90
35111;DHT22;21290;50.158;8.658;2022-11-09T09:43:44;14.10;99.90
35111;DHT22;21290;50.158;8.658;2022-11-09T09:46:20;14.00;99.90
35111;DHT22;21290;50.158;8.658;2022-11-09T09:48:49;14.00;99.90
35111;DHT22;21290;50.158;8.658;2022-11-09T09:51:21;13.90;99.90
35111;DHT22;21290;50.158;8.658;2022-11-09T09:53:54;13.80;99.90
35111;DHT22;21290;50.158;8.658;2022-11-09T09:56:24;14.10;99.90
35111;DHT22;21290;50.158;8.658;2022-11-09T10:01:44;14.00;99.90
35111;DHT22;21290;50.158;8.658;2022-11-09T10:04:16;13.90;99.90
35111;DHT22;21290;50.158;8.658;2022-11-09T10:09:19;14.00;99.90
35111;DHT22;21290;50.158;8.658;2022-11-09T10:14:32;14.50;99.90
35111;DHT22;21290;50.158;8.658;2022-11-09T10:19:43;14.70;99.90
35111;DHT22;21290;50.158;8.658;2022-11-09T10:22:16;15.10;99.90
35111;DHT22;21290;50.158;8.658;2022-11-09T10:24:51;15.30;99.90
35111;DHT22;21290;50.158;8.658;2022-11-09T10:27:41;15.60;99.90
35111;DHT22;21290;50.158;8.658;2022-11-09T10:30:12;16.40;99.90
35111;DHT22;21290;50.158;8.658;2022-11-09T10:32:40;16.50;99.90
35111;DHT22;21290;50.158;8.658;2022-11-09T10:37:53;16.60;99.90
35111;DHT22;21290;50.158;8.658;2022-11-09T10:40:22;16.30;99.90
35111;DHT22;21290;50.158;8.658;2022-11-09T10:42:53;16.00;99.90
35111;DHT22;21290;50.158;8.658;2022-11-09T10:45:25;15.90;99.90
35111;DHT22;21290;50.158;8.658;2022-11-09T10:47:53;16.00;99.90
35111;DHT22;21290;50.158;8.658;2022-11-09T10:52:49;17.50;99.90
35111;DHT22;21290;50.158;8.658;2022-11-09T10:55:24;17.40;99.90
35111;DHT22;21290;50.158;8.658;2022-11-09T10:57:58;17.30;99.90
35111;DHT22;21290;50.158;8.658;2022-11-09T11:00:26;17.90;99.90
35111;DHT22;21290;50.158;8.658;2022-11-09T11:02:53;19.00;99.90
35111;DHT22;21290;50.158;8.658;2022-11-09T11:05:22;19.30;99.90
35111;DHT22;21290;50.158;8.658;2022-11-09T11:07:49;18.80;99.90
35111;DHT22;21290;50.158;8.658;2022-11-09T11:12:43;18.20;99.90
35111;DHT22;21290;50.158;8.658;2022-11-09T11:15:31;18.00;99.90
35111;DHT22;21290;50.158;8.658;2022-11-09T11:18:00;17.60;99.90
35111;DHT22;21290;50.158;8.658;2022-11-09T11:20:29;17.30;99.90
35111;DHT22;21290;50.158;8.658;2022-11-09T11:25:31;17.00;99.90
35111;DHT22;21290;50.158;8.658;2022-11-09T11:28:01;16.70;99.90
35111;DHT22;21290;50.158;8.658;2022-11-09T11:30:32;16.50;99.90
35111;DHT22;21290;50.158;8.658;2022-11-09T11:33:02;16.00;99.90
35111;DHT22;21290;50.158;8.658;2022-11-09T11:35:39;15.90;99.90
35111;DHT22;21290;50.158;8.658;2022-11-09T11:46:02;15.60;99.90
35111;DHT22;21290;50.158;8.658;2022-11-09T11:51:17;15.70;99.90
35111;DHT22;21290;50.158;8.658;2022-11-09T11:57:00;16.10;99.90
35111;DHT22;21290;50.158;8.658;2022-11-09T12:07:38;17.40;99.90
35111;DHT22;21290;50.158;8.658;2022-11-09T12:12:59;17.10;99.90
35111;DHT22;21290;50.158;8.658;2022-11-09T12:18:24;16.90;99.90
35111;DHT22;21290;50.158;8.658;2022-11-09T12:23:36;16.60;99.90
35111;DHT22;21290;50.158;8.658;2022-11-09T12:31:11;16.30;99.90
35111;DHT22;21290;50.158;8.658;2022-11-09T12:33:46;16.40;99.90
35111;DHT22;21290;50.158;8.658;2022-11-09T12:36:18;16.50;99.90
35111;DHT22;21290;50.158;8.658;2022-11-09T12:38:51;16.50;99.90
35111;DHT22;21290;50.158;8.658;2022-11-09T12:41:20;16.50;99.90
35111;DHT22;21290;50.158;8.658;2022-11-09T12:46:14;16.30;99.90
35111;DHT22;21290;50.158;8.658;2022-11-09T12:48:42;16.30;99.90
35111;DHT22;21290;50.158;8.658;2022-11-09T12:51:10;16.40;99.90
35111;DHT22;21290;50.158;8.658;2022-11-09T12:53:37;16.30;99.90
35111;DHT22;21290;50.158;8.658;2022-11-09T12:56:09;16.30;99.90
35111;DHT22;21290;50.158;8.658;2022-11-09T12:58:37;16.30;99.90
35111;DHT22;21290;50.158;8.658;2022-11-09T13:01:05;16.30;99.90
35111;DHT22;21290;50.158;8.658;2022-11-09T13:03:32;16.10;99.90
35111;DHT22;21290;50.158;8.658;2022-11-09T13:06:10;16.00;99.90
35111;DHT22;21290;50.158;8.658;2022-11-09T13:08:38;15.90;99.90
35111;DHT22;21290;50.158;8.658;2022-11-09T13:11:06;15.80;99.90
35111;DHT22;21290;50.158;8.658;2022-11-09T13:13:34;15.80;99.90
35111;DHT22;21290;50.158;8.658;2022-11-09T13:18:46;15.70;99.90
35111;DHT22;21290;50.158;8.658;2022-11-09T13:29:23;15.40;99.90
35111;DHT22;21290;50.158;8.658;2022-11-09T13:31:58;15.40;99.90
35111;DHT22;21290;50.158;8.658;2022-11-09T13:34:38;15.40;99.90
35111;DHT22;21290;50.158;8.658;2022-11-09T13:39:50;15.40;99.90
35111;DHT22;21290;50.158;8.658;2022-11-09T13:42:22;15.30;99.90
35111;DHT22;21290;50.158;8.658;2022-11-09T13:44:50;15.30;99.90
35111;DHT22;21290;50.158;8.658;2022-11-09T13:47:24;15.30;99.90
35111;DHT22;21290;50.158;8.658;2022-11-09T13:49:53;15.30;99.90
35111;DHT22;21290;50.158;8.658;2022-11-09T13:52:36;15.20;99.90
35111;DHT22;21290;50.158;8.658;2022-11-09T13:58:22;15.00;99.90
35111;DHT22;21290;50.158;8.658;2022-11-09T14:00:50;14.90;99.90
35111;DHT22;21290;50.158;8.658;2022-11-09T14:03:24;14.70;99.90
35111;DHT22;21290;50.158;8.658;2022-11-09T14:05:54;14.70;99.90
35111;DHT22;21290;50.158;8.658;2022-11-09T14:08:30;14.70;99.90
35111;DHT22;21290;50.158;8.658;2022-11-09T14:13:59;14.80;99.90
35111;DHT22;21290;50.158;8.658;2022-11-09T14:16:49;14.80;99.90
35111;DHT22;21290;50.158;8.658;2022-11-09T14:19:34;14.80;99.90
35111;DHT22;21290;50.158;8.658;2022-11-09T14:22:10;14.90;99.90
35111;DHT22;21290;50.158;8.658;2022-11-09T14:24:38;14.90;99.90
35111;DHT22;21290;50.158;8.658;2022-11-09T14:29:35;14.80;99.90
35111;DHT22;21290;50.158;8.658;2022-11-09T14:32:17;14.80;99.90
35111;DHT22;21290;50.158;8.658;2022-11-09T14:34:47;14.80;99.90
35111;DHT22;21290;50.158;8.658;2022-11-09T14:37:14;14.80;99.90
35111;DHT22;21290;50.158;8.658;2022-11-09T14:39:42;14.70;99.90
35111;DHT22;21290;50.158;8.658;2022-11-09T14:42:15;14.70;99.90
35111;DHT22;21290;50.158;8.658;2022-11-09T14:44:43;14.60;99.90
35111;DHT22;21290;50.158;8.658;2022-11-09T14:47:13;14.50;99.90
35111;DHT22;21290;50.158;8.658;2022-11-09T14:49:40;14.40;99.90
35111;DHT22;21290;50.158;8.658;2022-11-09T14:52:08;14.30;99.90
35111;DHT22;21290;50.158;8.658;2022-11-09T14:54:36;14.00;99.90
35111;DHT22;21290;50.158;8.658;2022-11-09T14:57:12;13.80;99.90
35111;DHT22;21290;50.158;8.658;2022-11-09T14:59:40;13.60;99.90
35111;DHT22;21290;50.158;8.658;2022-11-09T15:02:09;13.50;99.90
35111;DHT22;21290;50.158;8.658;2022-11-09T15:07:23;13.20;99.90
35111;DHT22;21290;50.158;8.658;2022-11-09T15:09:51;13.20;99.90
35111;DHT22;21290;50.158;8.658;2022-11-09T15:12:19;13.10;99.90
35111;DHT22;21290;50.158;8.658;2022-11-09T15:14:47;13.10;99.90
35111;DHT22;21290;50.158;8.658;2022-11-09T15:19:57;13.00;99.90
35111;DHT22;21290;50.158;8.658;2022-11-09T15:22:39;13.10;99.90
35111;DHT22;21290;50.158;8.658;2022-11-09T15:27:56;13.00;99.90
35111;DHT22;21290;50.158;8.658;2022-11-09T15:32:55;13.00;99.90
35111;DHT22;21290;50.158;8.658;2022-11-09T15:35:22;13.00;99.90
35111;DHT22;21290;50.158;8.658;2022-11-09T15:37:50;13.00;99.90
35111;DHT22;21290;50.158;8.658;2022-11-09T15:40:17;13.00;99.90
35111;DHT22;21290;50.158;8.658;2022-11-09T15:42:44;13.00;99.90
35111;DHT22;21290;50.158;8.658;2022-11-09T15:45:12;13.00;99.90
35111;DHT22;21290;50.158;8.658;2022-11-09T15:47:40;13.00;99.90
35111;DHT22;21290;50.158;8.658;2022-11-09T15:50:13;13.00;99.90
35111;DHT22;21290;50.158;8.658;2022-11-09T15:52:40;12.90;99.90
35111;DHT22;21290;50.158;8.658;2022-11-09T15:55:13;12.90;99.90
35111;DHT22;21290;50.158;8.658;2022-11-09T15:57:40;12.90;99.90
35111;DHT22;21290;50.158;8.658;2022-11-09T16:00:10;12.90;99.90
35111;DHT22;21290;50.158;8.658;2022-11-09T16:02:44;12.90;99.90
35111;DHT22;21290;50.158;8.658;2022-11-09T16:05:11;12.90;99.90
35111;DHT22;21290;50.158;8.658;2022-11-09T16:07:45;12.80;99.90
35111;DHT22;21290;50.158;8.658;2022-11-09T16:10:12;12.80;99.90
35111;DHT22;21290;50.158;8.658;2022-11-09T16:12:39;12.80;99.90
35111;DHT22;21290;50.158;8.658;2022-11-09T16:15:11;12.80;99.90
35111;DHT22;21290;50.158;8.658;2022-11-09T16:17:38;12.80;99.90
35111;DHT22;21290;50.158;8.658;2022-11-09T16:20:04;12.70;99.90
35111;DHT22;21290;50.158;8.658;2022-11-09T16:22:31;12.70;99.90
35111;DHT22;21290;50.158;8.658;2022-11-09T16:25:01;12.70;99.90
35111;DHT22;21290;50.158;8.658;2022-11-09T16:27:50;12.70;99.90
35111;DHT22;21290;50.158;8.658;2022-11-09T16:30:18;12.70;99.90
35111;DHT22;21290;50.158;8.658;2022-11-09T16:32:53;12.60;99.90
35111;DHT22;21290;50.158;8.658;2022-11-09T16:35:20;12.60;99.90
35111;DHT22;21290;50.158;8.658;2022-11-09T16:37:53;12.60;99.90
35111;DHT22;21290;50.158;8.658;2022-11-09T16:40:20;12.60;99.90
35111;DHT22;21290;50.158;8.658;2022-11-09T16:42:47;12.60;99.90
35111;DHT22;21290;50.158;8.658;2022-11-09T16:45:14;12.70;99.90
35111;DHT22;21290;50.158;8.658;2022-11-09T16:47:42;12.70;99.90
35111;DHT22;21290;50.158;8.658;2022-11-09T16:50:09;12.70;99.90
35111;DHT22;21290;50.158;8.658;2022-11-09T16:52:36;12.70;99.90
35111;DHT22;21290;50.158;8.658;2022-11-09T16:55:02;12.70;99.90
35111;DHT22;21290;50.158;8.658;2022-11-09T16:57:29;12.70;99.90
35111;DHT22;21290;50.158;8.658;2022-11-09T16:59:56;12.70;99.90
35111;DHT22;21290;50.158;8.658;2022-11-09T17:02:23;12.70;99.90
35111;DHT22;21290;50.158;8.658;2022-11-09T17:04:50;12.60;99.90
35111;DHT22;21290;50.158;8.658;2022-11-09T17:07:16;12.60;99.90
35111;DHT22;21290;50.158;8.658;2022-11-09T17:09:42;12.60;99.90
35111;DHT22;21290;50.158;8.658;2022-11-09T17:12:09;12.60;99.90
35111;DHT22;21290;50.158;8.658;2022-11-09T17:14:35;12.60;99.90
35111;DHT22;21290;50.158;8.658;2022-11-09T17:17:02;12.60;99.90